Time;durP1;ratioP1;P1;durP2;ratioP2;P2;SDS_P1;SDS_P2;PMS_P1;PMS_P2;Temp;Humidity;BMP_temperature;BMP_pressure;BME280_temperature;BME280_humidity;BME280_pressure;Samples;Min_cycle;Max_cycle;Signal;HPM_P1;HPM_P2
2022/08/15 00:00:22;;;;;;;7.47;6.78;;;;;;;21.41;65.99;99077.38;5071420;28;20048;-61
2022/08/15 00:02:50;;;;;;;7.85;7.10;;;;;;;21.41;65.76;99069.69;5070525;28;20405;-61
2022/08/15 00:05:24;;;;;;;7.95;7.15;;;;;;;21.43;65.79;99072.13;5061816;28;20057;-61
2022/08/15 00:07:53;;;;;;;7.50;6.65;;;;;;;21.44;65.95;99073.72;5068620;28;20053;-61
2022/08/15 00:10:21;;;;;;;8.77;6.72;;;;;;;21.43;66.03;99067.25;5068752;28;20078;-65
2022/08/15 00:12:49;;;;;;;9.85;6.82;;;;;;;21.46;66.16;99074.09;5071007;28;20063;-65
2022/08/15 00:15:20;;;;;;;7.20;6.50;;;;;;;21.46;65.96;99066.44;5063921;28;20045;-64
2022/08/15 00:17:48;;;;;;;7.10;6.40;;;;;;;21.48;66.06;99068.81;5059419;28;20056;-64
2022/08/15 00:20:17;;;;;;;8.17;7.37;;;;;;;21.48;65.86;99066.81;5060658;28;20492;-64
2022/08/15 00:22:48;;;;;;;8.32;7.53;;;;;;;21.49;65.37;99067.59;5069853;28;20501;-64
2022/08/15 00:25:16;;;;;;;7.18;6.50;;;;;;;21.51;65.69;99064.34;5070799;28;20052;-64
2022/08/15 00:27:47;;;;;;;7.60;6.88;;;;;;;21.54;65.56;99061.44;5063717;28;20052;-64
2022/08/15 00:30:15;;;;;;;6.78;6.18;;;;;;;21.60;65.41;99061.81;5055962;28;20052;-64
2022/08/15 00:32:42;;;;;;;7.45;6.75;;;;;;;21.63;64.77;99060.97;5057266;28;20044;-64
2022/08/15 00:37:55;;;;;;;7.40;6.72;;;;;;;21.68;64.81;99063.31;5068347;28;20053;-65
2022/08/15 00:40:24;;;;;;;7.20;6.50;;;;;;;21.69;64.88;99065.72;5071106;28;20059;-65
2022/08/15 00:42:51;;;;;;;9.05;7.45;;;;;;;21.70;65.18;99058.03;5055369;28;20053;-64
2022/08/15 00:45:21;;;;;;;7.10;6.50;;;;;;;21.73;64.87;99047.88;5070928;28;20053;-64
2022/08/15 00:50:31;;;;;;;7.53;6.82;;;;;;;21.73;64.89;99053.53;5058121;28;20053;-65
2022/08/15 00:53:02;;;;;;;7.70;7.00;;;;;;;21.77;64.97;99057.91;5069755;28;20052;-65
2022/08/15 00:55:33;;;;;;;7.90;7.20;;;;;;;21.77;64.95;99066.44;5070116;28;20052;-64
2022/08/15 00:58:02;;;;;;;7.45;6.75;;;;;;;21.81;64.88;99053.00;5067438;28;20794;-64
2022/08/15 01:00:34;;;;;;;9.50;7.97;;;;;;;21.85;64.73;99062.28;5057613;28;20060;-64
2022/08/15 01:03:04;;;;;;;8.07;7.13;;;;;;;21.78;65.25;99065.22;5051660;28;20463;-65
2022/08/15 01:05:32;;;;;;;8.00;7.25;;;;;;;21.79;65.23;99049.78;5069220;28;20071;-61
2022/08/15 01:08:02;;;;;;;8.60;7.43;;;;;;;21.85;65.22;99064.31;5069291;28;20445;-61
2022/08/15 01:10:31;;;;;;;8.30;7.15;;;;;;;21.89;65.46;99062.22;5068934;28;20500;-62
2022/08/15 01:13:33;;;;;;;7.75;7.05;;;;;;;21.95;65.43;99056.91;5071519;28;20060;-61
2022/08/15 01:16:00;;;;;;;8.00;7.30;;;;;;;21.97;65.03;99057.28;5070761;28;20396;-61
2022/08/15 01:18:29;;;;;;;8.82;7.35;;;;;;;21.96;65.13;99053.59;5071499;28;20056;-61
2022/08/15 01:21:02;;;;;;;9.93;7.00;;;;;;;22.04;64.98;99063.63;5068886;28;20049;-61
2022/08/15 01:23:44;;;;;;;8.88;7.78;;;;;;;22.04;64.69;99051.47;5069910;28;20056;-62
2022/08/15 01:26:15;;;;;;;8.35;7.55;;;;;;;22.04;64.57;99046.59;5070497;28;20381;-61
2022/08/15 01:28:46;;;;;;;8.18;7.45;;;;;;;22.04;64.50;99040.94;5064094;28;20052;-62
2022/08/15 01:31:16;;;;;;;8.35;7.55;;;;;;;22.05;64.24;99036.88;5068714;28;20053;-61
2022/08/15 01:33:47;;;;;;;8.00;7.20;;;;;;;22.05;64.25;99045.41;5070184;28;20051;-61
2022/08/15 01:36:15;;;;;;;9.98;7.53;;;;;;;22.04;64.55;99040.16;5059882;28;20053;-62
2022/08/15 01:38:46;;;;;;;7.65;6.53;;;;;;;22.02;64.72;99045.44;5052113;28;20521;-61
2022/08/15 01:41:23;;;;;;;7.15;6.53;;;;;;;22.02;64.67;99046.22;5068779;28;20044;-61
2022/08/15 01:43:56;;;;;;;8.32;7.53;;;;;;;22.00;64.53;99045.84;5058937;28;20056;-62
2022/08/15 01:46:26;;;;;;;7.88;7.05;;;;;;;21.97;64.77;99045.94;5070869;28;20059;-61
2022/08/15 01:49:06;;;;;;;7.57;6.88;;;;;;;21.92;64.90;99050.03;5074819;28;20427;-61
2022/08/15 01:51:36;;;;;;;7.35;6.65;;;;;;;21.92;64.83;99050.03;5071503;28;20512;-62
2022/08/15 01:54:07;;;;;;;8.43;6.57;;;;;;;21.89;65.13;99039.56;5059007;28;20055;-61
2022/08/15 01:56:40;;;;;;;7.72;6.90;;;;;;;21.90;65.16;99046.81;5068121;28;20047;-61
2022/08/15 01:59:14;;;;;;;8.00;7.30;;;;;;;21.83;65.65;99058.25;5059238;28;20490;-61
2022/08/15 02:01:49;;;;;;;7.32;6.53;;;;;;;21.83;65.53;99052.59;5066003;28;20071;-61
2022/08/15 02:04:19;;;;;;;8.07;7.38;;;;;;;21.81;65.70;99053.00;5074631;28;20397;-61
2022/08/15 02:06:47;;;;;;;8.38;7.47;;;;;;;21.74;66.03;99061.63;5072720;28;20417;-64
2022/08/15 02:09:17;;;;;;;8.30;7.50;;;;;;;21.76;65.86;99064.84;5073837;28;20048;-64
2022/08/15 02:11:47;;;;;;;7.53;6.82;;;;;;;21.75;65.91;99066.03;5072086;28;20086;-64
2022/08/15 02:14:15;;;;;;;8.10;7.30;;;;;;;21.77;65.67;99057.91;5071041;28;20049;-64
2022/08/15 02:16:44;;;;;;;9.63;8.10;;;;;;;21.79;66.17;99052.63;5056870;28;20053;-64
2022/08/15 02:19:14;;;;;;;9.23;8.32;;;;;;;21.78;65.96;99068.03;5067124;28;20052;-64
2022/08/15 02:21:44;;;;;;;7.90;7.10;;;;;;;21.79;65.98;99049.00;5065849;28;20053;-64
2022/08/15 02:24:16;;;;;;;8.35;7.55;;;;;;;21.74;66.03;99061.63;5061787;28;20052;-64
2022/08/15 02:26:43;;;;;;;13.65;7.88;;;;;;;21.76;66.21;99047.81;5073148;28;20048;-64
2022/08/15 02:29:12;;;;;;;8.98;8.18;;;;;;;21.77;66.00;99054.28;5073065;28;20055;-64
2022/08/15 02:31:41;;;;;;;8.75;7.95;;;;;;;21.76;66.10;99053.50;5072077;28;20083;-64
2022/08/15 02:34:10;;;;;;;8.63;7.83;;;;;;;21.73;66.32;99051.50;5053536;28;20052;-64
2022/08/15 02:36:39;;;;;;;8.55;6.93;;;;;;;21.68;66.49;99063.31;5065487;28;20486;-64
2022/08/15 02:39:09;;;;;;;8.07;7.38;;;;;;;21.69;66.65;99062.06;5071522;28;20044;-63
2022/08/15 02:41:40;;;;;;;8.98;7.50;;;;;;;21.68;66.55;99051.97;5072365;28;20060;-65
2022/08/15 02:44:08;;;;;;;8.10;7.40;;;;;;;21.63;66.76;99058.13;5073801;28;20048;-64
2022/08/15 02:46:37;;;;;;;7.55;6.78;;;;;;;21.66;66.69;99049.56;5057184;28;20421;-64
2022/08/15 02:49:12;;;;;;;8.73;7.88;;;;;;;21.67;66.48;99054.03;5072850;28;20056;-65
2022/08/15 02:51:40;;;;;;;8.77;7.80;;;;;;;21.65;66.80;99058.50;5072031;28;20056;-65
2022/08/15 02:54:09;;;;;;;8.20;7.40;;;;;;;21.63;66.55;99055.31;5073251;28;20052;-64
2022/08/15 02:56:37;;;;;;;8.23;6.97;;;;;;;21.63;66.79;99041.13;5070149;28;20055;-64
2022/08/15 02:59:07;;;;;;;7.72;7.03;;;;;;;21.58;66.58;99050.09;5073380;28;20056;-65
2022/08/15 03:01:38;;;;;;;7.82;7.13;;;;;;;21.41;66.71;99043.38;5065852;28;20064;-64
2022/08/15 03:04:08;;;;;;;8.50;7.60;;;;;;;21.37;66.68;99051.91;5059421;28;20052;-64
2022/08/15 03:06:36;;;;;;;8.10;7.30;;;;;;;21.42;66.62;99051.50;5061536;28;20053;-65
2022/08/15 03:09:07;;;;;;;8.48;7.70;;;;;;;21.45;66.31;99059.13;5068012;28;20051;-64
2022/08/15 03:11:38;;;;;;;8.20;7.50;;;;;;;21.42;66.16;99047.88;5069447;28;20048;-64
2022/08/15 03:14:07;;;;;;;8.20;7.43;;;;;;;21.31;66.53;99050.78;5071544;28;20136;-63
2022/08/15 03:16:42;;;;;;;8.43;7.63;;;;;;;21.39;66.53;99052.28;5064746;28;20413;-64
2022/08/15 03:19:10;;;;;;;8.45;7.60;;;;;;;21.25;67.40;99046.78;5065353;28;20057;-62
2022/08/15 03:21:38;;;;;;;8.27;7.47;;;;;;;21.31;67.15;99042.28;5066569;28;20064;-65
2022/08/15 03:24:07;;;;;;;9.05;7.72;;;;;;;21.25;66.92;99047.63;5060706;28;20050;-65
2022/08/15 03:26:34;;;;;;;9.68;7.88;;;;;;;21.25;66.77;99052.47;5057053;28;20057;-64
2022/08/15 03:29:03;;;;;;;8.52;7.70;;;;;;;21.23;65.13;99052.91;5060743;28;20052;-65
2022/08/15 03:31:40;;;;;;;8.63;7.82;;;;;;;21.27;64.39;99050.00;5063242;28;20049;-65
2022/08/15 03:34:09;;;;;;;9.60;8.05;;;;;;;21.30;65.65;99046.34;5064340;28;20048;-64
2022/08/15 03:36:37;;;;;;;7.75;7.05;;;;;;;21.35;66.05;99051.53;5068004;28;20083;-65
2022/08/15 03:39:06;;;;;;;8.13;7.32;;;;;;;21.40;66.14;99042.59;5070261;28;20044;-64
2022/08/15 03:41:33;;;;;;;8.88;7.80;;;;;;;21.42;66.08;99036.53;5070976;28;20052;-65
2022/08/15 03:44:04;;;;;;;8.35;7.55;;;;;;;21.42;65.97;99037.34;5055657;28;20048;-65
2022/08/15 03:46:31;;;;;;;8.80;7.65;;;;;;;21.42;65.93;99034.50;5067066;28;20057;-65
2022/08/15 03:49:02;;;;;;;8.68;7.82;;;;;;;21.46;65.89;99028.78;5054829;28;20048;-64
2022/08/15 03:51:30;;;;;;;9.18;8.15;;;;;;;21.47;65.79;99039.69;5062428;28;20374;-65
2022/08/15 03:54:00;;;;;;;9.23;8.20;;;;;;;21.49;65.82;99028.72;5053310;28;20056;-64
2022/08/15 03:56:30;;;;;;;8.70;7.90;;;;;;;21.51;65.59;99027.53;5071885;28;20051;-64
2022/08/15 03:58:58;;;;;;;9.32;7.32;;;;;;;21.51;65.38;99027.53;5061225;28;20053;-63
2022/08/15 04:01:31;;;;;;;9.13;7.68;;;;;;;21.52;65.34;99032.75;5068301;28;20052;-61
2022/08/15 04:03:59;;;;;;;8.57;7.88;;;;;;;21.44;64.68;99028.38;5071112;28;20409;-62
2022/08/15 04:06:29;;;;;;;8.83;7.90;;;;;;;21.40;64.81;99030.47;5071442;28;20063;-61
2022/08/15 04:09:00;;;;;;;10.23;8.15;;;;;;;21.35;64.53;99022.41;5073627;28;20056;-65
2022/08/15 04:11:30;;;;;;;9.93;8.05;;;;;;;21.34;64.84;99035.00;5068827;28;20052;-63
2022/08/15 04:13:59;;;;;;;8.75;7.68;;;;;;;21.38;64.75;99044.25;5064068;28;20519;-65
2022/08/15 04:16:26;;;;;;;10.10;7.82;;;;;;;21.40;63.37;99031.25;5071254;28;20067;-65
2022/08/15 04:18:54;;;;;;;8.02;7.22;;;;;;;21.40;60.54;99034.09;5060919;28;20059;-65
2022/08/15 04:21:21;;;;;;;7.25;6.55;;;;;;;21.43;60.46;99030.44;5067792;28;20067;-62
2022/08/15 04:23:52;;;;;;;7.40;6.13;;;;;;;21.47;60.54;99031.19;5066732;28;20053;-65
2022/08/15 04:26:21;;;;;;;8.30;7.47;;;;;;;21.52;61.57;99034.78;5062183;28;20044;-65
2022/08/15 04:28:50;;;;;;;8.98;8.00;;;;;;;21.56;61.66;99030.66;5071331;28;20044;-65
2022/08/15 04:31:19;;;;;;;9.07;7.57;;;;;;;21.60;62.03;99031.44;5069921;28;20186;-65
2022/08/15 04:33:47;;;;;;;9.95;7.28;;;;;;;21.66;63.09;99035.41;5071313;28;20071;-65
2022/08/15 04:36:17;;;;;;;8.82;7.28;;;;;;;21.72;63.11;99040.59;5069409;28;20059;-65
2022/08/15 04:38:47;;;;;;;8.13;7.32;;;;;;;21.74;62.61;99035.31;5068118;28;20048;-65
2022/08/15 04:41:15;;;;;;;9.02;7.32;;;;;;;21.81;62.05;99041.66;5061408;28;20485;-65
2022/08/15 04:43:45;;;;;;;6.72;6.03;;;;;;;21.82;60.89;99039.66;5069996;28;20491;-65
2022/08/15 04:46:13;;;;;;;6.65;6.05;;;;;;;21.85;59.94;99039.59;5070881;28;20048;-65
2022/08/15 04:48:41;;;;;;;6.28;3.97;;;;;;;21.83;54.97;99044.09;5068484;28;20055;-64
2022/08/15 04:51:08;;;;;;;8.05;4.30;;;;;;;21.93;55.64;99039.50;5060369;28;20404;-61
2022/08/15 04:53:37;;;;;;;5.65;4.45;;;;;;;22.02;54.84;99031.25;5061785;28;20053;-61
2022/08/15 04:56:07;;;;;;;6.25;4.60;;;;;;;22.08;54.04;99023.88;5052854;28;20053;-62
2022/08/15 04:58:35;;;;;;;6.78;4.15;;;;;;;22.15;53.23;99034.31;5069810;28;20063;-61
2022/08/15 05:01:06;;;;;;;5.13;3.83;;;;;;;22.25;53.01;99017.16;5068438;28;20424;-62
2022/08/15 05:03:33;;;;;;;8.10;4.38;;;;;;;22.37;54.75;99029.16;5069935;28;20057;-61
2022/08/15 05:06:07;;;;;;;6.70;4.20;;;;;;;22.37;53.70;99046.16;5070105;28;20053;-62
2022/08/15 05:08:36;;;;;;;6.40;4.03;;;;;;;22.47;54.68;99042.34;5068142;28;20049;-62
2022/08/15 05:11:07;;;;;;;8.23;4.03;;;;;;;22.49;56.37;99037.06;5065352;28;20060;-62
2022/08/15 05:13:36;;;;;;;4.43;3.55;;;;;;;22.49;54.29;99037.06;5060300;28;20163;-62
2022/08/15 05:16:07;;;;;;;5.63;2.97;;;;;;;22.53;53.20;99031.28;5064525;28;20067;-61
2022/08/15 05:18:36;;;;;;;6.32;3.50;;;;;;;22.52;53.85;99024.81;5069636;28;20056;-62
2022/08/15 05:21:03;;;;;;;7.20;3.80;;;;;;;22.54;55.76;99028.03;5063455;28;20766;-62
2022/08/15 05:23:34;;;;;;;8.20;3.95;;;;;;;22.55;56.10;99029.63;5061372;28;20056;-62
2022/08/15 05:26:03;;;;;;;5.07;3.47;;;;;;;22.51;55.47;99037.44;5064304;28;20057;-64
2022/08/15 05:28:31;;;;;;;4.72;3.88;;;;;;;22.57;57.32;99038.50;5059548;28;20052;-64
2022/08/15 05:31:00;;;;;;;5.70;4.45;;;;;;;22.54;57.51;99045.06;5064453;28;20424;-64
2022/08/15 05:33:30;;;;;;;7.28;3.70;;;;;;;22.47;57.90;99062.22;5068023;28;20056;-63
2022/08/15 05:36:00;;;;;;;7.53;4.18;;;;;;;22.38;58.03;99068.41;5062306;28;20045;-65
2022/08/15 05:38:31;;;;;;;4.57;3.63;;;;;;;22.34;56.50;99070.50;5068456;28;20131;-65
2022/08/15 05:41:15;;;;;;;4.40;3.58;;;;;;;22.29;57.25;99074.63;5061304;28;20053;-65
2022/08/15 05:43:53;;;;;;;6.07;3.30;;;;;;;22.41;56.90;99080.97;5056138;28;20513;-64
2022/08/15 05:46:25;;;;;;;6.95;3.22;;;;;;;22.50;57.66;99078.38;5059711;28;20048;-62
2022/08/15 05:49:01;;;;;;;4.60;3.42;;;;;;;22.57;57.54;99078.25;5063398;28;20052;-62
2022/08/15 05:51:37;;;;;;;9.25;4.55;;;;;;;22.67;58.29;99076.47;5055117;28;20049;-63
2022/08/15 05:54:20;;;;;;;6.65;3.60;;;;;;;22.77;57.26;99066.19;5063259;28;20057;-63
2022/08/15 05:56:56;;;;;;;6.22;4.47;;;;;;;22.88;58.10;99067.56;5062983;28;20049;-64
2022/08/15 05:59:34;;;;;;;7.18;4.35;;;;;;;23.00;58.14;99063.31;5064145;28;20053;-64
2022/08/15 06:02:07;;;;;;;6.93;4.22;;;;;;;23.16;58.38;99067.50;5063273;28;20059;-63
2022/08/15 06:04:44;;;;;;;8.75;4.78;;;;;;;23.34;58.05;99072.88;5063746;28;20373;-64
2022/08/15 06:07:15;;;;;;;7.30;4.78;;;;;;;23.53;58.07;99071.28;5063050;28;20621;-63
2022/08/15 06:09:46;;;;;;;7.00;4.20;;;;;;;23.74;57.82;99062.28;5062854;28;20481;-64
2022/08/15 06:12:18;;;;;;;6.00;3.92;;;;;;;23.96;56.88;99073.22;5066806;28;20052;-64
2022/08/15 06:14:47;;;;;;;5.57;3.80;;;;;;;24.09;56.92;99074.97;5074008;28;20071;-64
2022/08/15 06:17:22;;;;;;;6.40;3.67;;;;;;;24.19;55.67;99069.44;5073611;28;20515;-63
2022/08/15 06:19:52;;;;;;;5.53;3.47;;;;;;;24.27;54.27;99071.72;5060555;28;20049;-63
2022/08/15 06:22:40;;;;;;;4.53;3.70;;;;;;;24.36;52.41;99075.97;5063732;28;20521;-64
2022/08/15 06:25:17;;;;;;;4.88;3.50;;;;;;;24.46;52.20;99074.91;5063139;28;20051;-64
2022/08/15 06:27:59;;;;;;;8.13;3.65;;;;;;;24.52;51.04;99076.00;5064776;28;20401;-63
2022/08/15 06:30:32;;;;;;;3.67;3.08;;;;;;;24.52;50.41;99067.47;5069618;28;20064;-63
2022/08/15 06:33:21;;;;;;;6.22;3.10;;;;;;;24.57;50.27;99078.34;5063723;28;20408;-64
2022/08/15 06:36:00;;;;;;;4.75;2.97;;;;;;;24.55;48.72;99075.13;5063923;28;20056;-62
2022/08/15 06:38:38;;;;;;;5.45;3.17;;;;;;;24.60;48.63;99077.44;5064373;28;20057;-63
2022/08/15 06:41:13;;;;;;;7.23;2.57;;;;;;;24.64;46.54;99077.38;5058929;28;20049;-64
2022/08/15 06:43:42;;;;;;;5.07;3.42;;;;;;;24.63;46.64;99082.25;5064955;28;20851;-64
2022/08/15 06:46:09;;;;;;;;;;;;;;;24.54;46.58;99076.38;5061906;28;20045;-63
2022/08/15 06:48:40;;;;;;;5.68;3.50;;;;;;;24.75;47.10;99082.78;5062199;28;19920;-63
2022/08/15 06:51:12;;;;;;;6.10;3.47;;;;;;;24.84;46.06;99089.47;5056219;28;20067;-61
2022/08/15 06:53:46;;;;;;;5.07;3.45;;;;;;;24.97;45.82;99095.25;5046784;28;20082;-64
2022/08/15 06:56:24;;;;;;;6.35;2.95;;;;;;;25.13;45.33;99114.34;5066311;28;20056;-61
2022/08/15 06:59:01;;;;;;;5.32;3.10;;;;;;;25.29;44.87;99117.19;5067132;28;20063;-63
2022/08/15 07:01:52;;;;;;;7.63;3.10;;;;;;;25.39;44.50;99108.78;5066125;28;20064;-62
2022/08/15 07:04:27;;;;;;;5.53;2.58;;;;;;;25.58;44.17;99109.94;5062365;28;20417;-63
2022/08/15 07:07:01;;;;;;;4.80;2.63;;;;;;;25.60;43.70;99118.81;5063286;28;20048;-62
2022/08/15 07:09:40;;;;;;;7.05;2.67;;;;;;;25.72;43.96;99121.72;5063960;28;20440;-62
2022/08/15 07:12:26;;;;;;;6.30;2.50;;;;;;;25.60;44.26;99121.66;5065838;28;20052;-62
2022/08/15 07:14:59;;;;;;;4.30;2.67;;;;;;;25.70;42.86;99123.41;5067950;28;20053;-62
2022/08/15 07:17:33;;;;;;;5.82;2.85;;;;;;;25.73;43.34;99123.31;5079224;28;20052;-62
2022/08/15 07:20:00;;;;;;;8.15;2.67;;;;;;;25.78;43.57;99126.88;5060467;28;20140;-62
2022/08/15 07:22:30;;;;;;;5.35;2.53;;;;;;;26.03;43.29;99129.81;5066076;28;20063;-62
2022/08/15 07:24:58;;;;;;;5.85;2.60;;;;;;;26.14;42.77;99123.78;5061160;28;20063;-62
2022/08/15 07:27:29;;;;;;;7.18;3.08;;;;;;;26.40;42.63;99123.81;5070248;28;20068;-62
2022/08/15 07:29:59;;;;;;;5.80;2.90;;;;;;;26.67;42.23;99129.91;5069402;28;20044;-63
2022/08/15 07:32:31;;;;;;;6.40;2.80;;;;;;;26.75;42.20;99130.44;5066227;28;20447;-63
2022/08/15 07:35:04;;;;;;;5.32;2.55;;;;;;;26.90;41.15;99134.44;5071350;28;20049;-63
2022/08/15 07:37:34;;;;;;;7.07;2.60;;;;;;;26.84;41.39;99141.22;5069791;28;20068;-62
2022/08/15 07:40:06;;;;;;;8.00;3.15;;;;;;;27.02;40.51;99129.97;5068973;28;20055;-63
2022/08/15 07:42:41;;;;;;;3.97;2.38;;;;;;;26.86;40.60;99122.34;5063415;28;20056;-63
2022/08/15 07:45:15;;;;;;;4.43;2.40;;;;;;;26.99;40.10;99142.31;5079008;28;20404;-64
2022/08/15 07:47:57;;;;;;;3.50;2.58;;;;;;;27.02;40.22;99129.97;5081095;28;20104;-62
2022/08/15 07:50:37;;;;;;;6.65;2.60;;;;;;;27.10;40.67;99139.09;5062138;28;20485;-63
2022/08/15 07:53:17;;;;;;;7.68;2.40;;;;;;;27.13;39.91;99135.31;5065128;28;20064;-63
2022/08/15 07:56:04;;;;;;;6.35;2.63;;;;;;;27.04;40.29;99138.88;5055427;28;20049;-63
2022/08/15 07:58:33;;;;;;;6.03;2.95;;;;;;;27.00;40.21;99140.25;5063428;28;20067;-64
2022/08/15 08:01:11;;;;;;;5.45;2.50;;;;;;;26.84;40.47;99135.50;5063264;28;20068;-64
2022/08/15 08:03:43;;;;;;;3.13;2.25;;;;;;;26.77;40.78;99133.66;5066915;28;20052;-64
2022/08/15 08:06:22;;;;;;;7.10;2.80;;;;;;;26.67;40.79;99135.63;5054386;28;20053;-63
2022/08/15 08:08:58;;;;;;;3.65;2.58;;;;;;;26.62;41.10;99136.19;5065939;28;20049;-63
2022/08/15 08:11:35;;;;;;;4.18;2.50;;;;;;;26.69;41.43;99135.97;5066654;28;20056;-62
2022/08/15 08:14:11;;;;;;;5.10;2.42;;;;;;;26.68;41.41;99134.34;5070253;28;20048;-64
2022/08/15 08:16:47;;;;;;;5.88;2.60;;;;;;;26.71;41.34;99122.03;5062980;28;20052;-62
2022/08/15 08:19:24;;;;;;;4.05;2.10;;;;;;;26.78;40.95;99120.97;5076985;28;20044;-63
2022/08/15 08:22:00;;;;;;;4.18;2.42;;;;;;;26.71;41.20;99119.16;5067011;28;20409;-63
2022/08/15 08:24:45;;;;;;;6.22;2.53;;;;;;;26.82;40.79;99115.94;5063857;28;20051;-63
2022/08/15 08:27:21;;;;;;;5.75;3.10;;;;;;;26.70;41.28;99114.69;5067142;28;20044;-59
2022/08/15 08:30:03;;;;;;;4.75;2.28;;;;;;;26.75;40.91;99099.03;5068960;28;20059;-62
2022/08/15 08:32:42;;;;;;;7.55;2.55;;;;;;;26.71;41.37;99101.19;5069486;28;20056;-62
2022/08/15 08:35:18;;;;;;;7.28;2.55;;;;;;;26.72;41.38;99109.31;5068913;28;20056;-63
2022/08/15 08:37:55;;;;;;;4.50;2.30;;;;;;;26.49;41.92;99110.44;5063716;28;20159;-62
2022/08/15 08:43:29;;;;;;;4.07;2.47;;;;;;;26.47;41.96;99106.44;5065145;28;20531;-62
2022/08/15 08:46:05;;;;;;;6.00;2.47;;;;;;;26.50;42.37;99091.25;5067689;28;20359;-63
2022/08/15 08:48:47;;;;;;;4.00;2.40;;;;;;;26.44;42.34;99099.59;5058595;28;20486;-63
2022/08/15 08:51:24;;;;;;;5.05;2.65;;;;;;;26.48;42.37;99100.28;5064825;28;20053;-60
2022/08/15 08:54:02;;;;;;;6.20;2.88;;;;;;;26.59;42.16;99096.31;5073909;28;20041;-63
2022/08/15 08:56:35;;;;;;;4.50;2.47;;;;;;;26.79;42.00;99085.44;5070540;28;20052;-63
2022/08/15 08:59:10;;;;;;;5.40;2.65;;;;;;;27.34;41.38;99082.34;5065325;28;20493;-63
2022/08/15 09:01:39;;;;;;;5.13;2.67;;;;;;;27.96;39.90;99083.78;5091925;28;20435;-60
2022/08/15 09:04:10;;;;;;;6.72;2.60;;;;;;;28.63;39.01;99080.28;5073490;28;20049;-60
2022/08/15 09:06:40;;;;;;;6.07;2.65;;;;;;;29.22;37.75;99079.47;5062858;28;20057;-61
2022/08/15 09:09:11;;;;;;;4.25;2.60;;;;;;;29.90;36.62;99074.34;5062149;28;20064;-60
2022/08/15 09:11:45;;;;;;;6.70;2.95;;;;;;;31.77;33.33;99073.59;5065164;28;20060;-60
2022/08/15 09:14:21;;;;;;;6.93;2.83;;;;;;;34.56;29.41;99079.16;5064700;28;20045;-60
2022/08/15 09:16:52;;;;;;;6.20;2.67;;;;;;;36.01;27.12;99078.78;5077880;28;20049;-60
2022/08/15 09:19:25;;;;;;;4.78;2.67;;;;;;;37.69;24.49;99077.69;5061675;28;20393;-60
2022/08/15 09:21:53;;;;;;;6.07;3.20;;;;;;;39.17;22.80;99090.47;5071810;28;20493;-60
2022/08/15 09:24:23;;;;;;;4.65;2.78;;;;;;;39.90;21.85;99091.66;5061903;28;20057;-61
2022/08/15 09:26:59;;;;;;;5.47;2.80;;;;;;;41.16;21.01;99078.09;5069544;28;20493;-61
2022/08/15 09:29:31;;;;;;;4.63;2.53;;;;;;;42.25;19.55;99089.75;5065531;28;20064;-60
2022/08/15 09:32:15;;;;;;;4.18;2.83;;;;;;;42.94;19.21;99089.59;5066136;28;20060;-61
2022/08/15 09:35:07;;;;;;;5.78;2.97;;;;;;;44.72;17.24;99088.91;5064588;28;20516;-59
2022/08/15 09:37:57;;;;;;;3.15;2.55;;;;;;;45.13;17.03;99087.69;5060032;28;20056;-59
2022/08/15 09:40:42;;;;;;;5.00;2.58;;;;;;;44.98;16.72;99093.59;5060461;28;20053;-60
2022/08/15 09:43:37;;;;;;;3.50;2.55;;;;;;;45.00;16.30;99096.72;5065147;28;20064;-60
2022/08/15 09:46:25;;;;;;;4.45;2.47;;;;;;;44.60;17.52;99091.44;5060673;28;20080;-59
2022/08/15 09:49:05;;;;;;;8.35;3.30;;;;;;;43.86;17.32;99107.72;5072260;28;20052;-61
2022/08/15 09:51:49;;;;;;;5.75;2.65;;;;;;;42.43;18.54;99110.66;5065870;28;20064;-61
2022/08/15 09:54:22;;;;;;;4.75;2.55;;;;;;;40.57;20.43;99113.16;5061579;28;20048;-61
2022/08/15 09:56:50;;;;;;;5.13;2.72;;;;;;;38.47;23.04;99116.28;5070291;28;20056;-60
2022/08/15 09:59:21;;;;;;;5.88;2.47;;;;;;;37.32;24.07;99113.75;5073233;28;20059;-61
2022/08/15 10:01:52;;;;;;;5.55;2.72;;;;;;;36.36;24.78;99116.78;5071260;28;20053;-61
2022/08/15 10:04:22;;;;;;;6.88;3.30;;;;;;;34.70;27.80;99125.81;5071033;28;20053;-61
2022/08/15 10:07:18;;;;;;;4.22;2.88;;;;;;;34.67;27.70;99126.84;5055190;28;20041;-60
2022/08/15 10:10:10;;;;;;;4.82;2.70;;;;;;;34.12;28.73;99123.75;5067247;28;20048;-60
2022/08/15 10:12:37;;;;;;;5.93;2.53;;;;;;;33.97;28.53;99132.47;5075513;28;20064;-61
2022/08/15 10:15:31;;;;;;;6.13;2.60;;;;;;;33.63;29.32;99134.22;5072713;28;20048;-60
2022/08/15 10:17:59;;;;;;;3.90;2.55;;;;;;;32.89;30.11;99146.03;5069652;28;20482;-60
2022/08/15 10:20:52;;;;;;;6.80;3.17;;;;;;;32.87;30.30;99139.97;5079962;28;20044;-60
2022/08/15 10:23:24;;;;;;;4.85;2.50;;;;;;;32.81;30.32;99127.53;5075447;28;20409;-61
2022/08/15 10:26:10;;;;;;;3.72;2.45;;;;;;;32.77;30.95;99139.28;5072672;28;20396;-62
2022/08/15 10:28:40;;;;;;;4.85;2.60;;;;;;;32.48;31.23;99140.88;5071539;28;20048;-62
2022/08/15 10:31:27;;;;;;;4.45;2.97;;;;;;;32.56;31.20;99138.44;5073103;28;20080;-62
2022/08/15 10:34:00;;;;;;;5.47;2.85;;;;;;;32.79;31.14;99130.94;5070334;28;20052;-62
2022/08/15 10:36:31;;;;;;;4.40;2.42;;;;;;;33.04;30.22;99126.56;5073234;28;20057;-62
2022/08/15 10:39:20;;;;;;;5.53;2.70;;;;;;;33.00;31.34;99131.75;5077933;28;20056;-63
2022/08/15 10:42:01;;;;;;;7.05;2.90;;;;;;;32.67;31.37;99129.94;5073560;28;20184;-62
2022/08/15 10:44:46;;;;;;;3.42;2.58;;;;;;;32.75;30.64;99142.66;5066262;28;20075;-61
2022/08/15 10:47:25;;;;;;;4.53;2.53;;;;;;;32.57;30.71;99148.69;5063658;28;20048;-64
2022/08/15 10:50:07;;;;;;;4.43;2.78;;;;;;;32.90;30.79;99141.84;5063564;28;20052;-61
2022/08/15 10:52:51;;;;;;;2.72;2.20;;;;;;;33.17;29.92;99144.34;5066347;28;20680;-62
2022/08/15 10:55:27;;;;;;;3.65;2.13;;;;;;;32.83;30.47;99148.81;5068714;28;20049;-62
2022/08/15 10:57:58;;;;;;;3.47;2.30;;;;;;;32.86;30.25;99136.25;5067422;28;20044;-61
2022/08/15 11:00:41;;;;;;;5.20;2.50;;;;;;;33.66;29.47;99149.72;5070037;28;20060;-61
2022/08/15 11:03:18;;;;;;;4.20;2.50;;;;;;;33.50;29.15;99149.00;5068712;28;20523;-61
2022/08/15 11:05:58;;;;;;;3.85;2.33;;;;;;;33.41;28.74;99140.50;5069150;28;20052;-60
2022/08/15 11:08:26;;;;;;;3.03;2.10;;;;;;;32.93;28.78;99150.28;5063839;28;20477;-61
2022/08/15 11:11:04;;;;;;;4.32;2.40;;;;;;;32.53;30.18;99153.81;5069940;28;20497;-59
2022/08/15 11:13:32;;;;;;;4.03;2.50;;;;;;;32.47;30.44;99150.84;5066583;28;20056;-61
2022/08/15 11:16:09;;;;;;;5.53;2.20;;;;;;;32.34;30.90;99150.34;5068825;28;20051;-59
2022/08/15 11:18:50;;;;;;;4.63;2.30;;;;;;;32.63;30.86;99158.19;5069921;28;20062;-59
2022/08/15 11:21:27;;;;;;;4.57;2.20;;;;;;;33.10;30.45;99156.31;5072783;28;20059;-59
2022/08/15 11:24:06;;;;;;;3.08;2.20;;;;;;;33.27;29.81;99161.56;5067373;28;20048;-60
2022/08/15 11:26:37;;;;;;;3.75;2.00;;;;;;;33.07;30.33;99162.28;5072063;28;20056;-60
2022/08/15 11:29:10;;;;;;;2.75;1.90;;;;;;;32.95;30.24;99155.56;5074142;28;20044;-60
2022/08/15 11:31:46;;;;;;;4.60;2.20;;;;;;;32.90;31.12;99162.81;5070180;28;20052;-59
2022/08/15 11:34:27;;;;;;;5.35;2.42;;;;;;;33.09;30.84;99156.81;5071231;28;20059;-59
2022/08/15 11:37:02;;;;;;;3.78;2.35;;;;;;;33.06;30.43;99161.47;5069423;28;20055;-60
2022/08/15 11:39:32;;;;;;;3.75;2.75;;;;;;;32.67;30.84;99170.31;5070360;28;20049;-61
2022/08/15 11:42:04;;;;;;;4.82;2.30;;;;;;;32.90;31.13;99159.13;5066435;28;20048;-60
2022/08/15 11:44:45;;;;;;;5.78;2.83;;;;;;;32.89;30.67;99163.34;5069334;28;20049;-60
2022/08/15 11:47:16;;;;;;;4.88;2.60;;;;;;;33.00;30.61;99175.03;5068804;28;20518;-60
2022/08/15 11:49:51;;;;;;;6.20;2.67;;;;;;;32.66;31.22;99173.72;5069322;28;20489;-60
2022/08/15 11:52:25;;;;;;;5.00;2.28;;;;;;;32.38;31.34;99176.88;5069847;28;20056;-59
2022/08/15 11:55:14;;;;;;;3.97;2.08;;;;;;;32.21;31.27;99175.78;5069576;28;20052;-60
2022/08/15 11:57:43;;;;;;;8.00;2.83;;;;;;;32.12;31.30;99185.31;5066422;28;20041;-60
2022/08/15 12:00:16;;;;;;;4.75;2.40;;;;;;;32.07;31.26;99186.81;5070034;28;20063;-59
2022/08/15 12:02:44;;;;;;;4.97;2.60;;;;;;;31.72;31.94;99184.50;5033626;28;20054;-60
2022/08/15 12:05:16;;;;;;;4.00;2.03;;;;;;;31.61;32.44;99174.84;5030224;28;20482;-59
2022/08/15 12:07:46;;;;;;;2.72;1.90;;;;;;;31.28;32.71;99181.44;5026713;28;20064;-60
2022/08/15 12:10:27;;;;;;;3.47;2.47;;;;;;;31.16;33.23;99183.25;5031227;28;20061;-60